Time;durP1;ratioP1;P1;durP2;ratioP2;P2;SDS_P1;SDS_P2;PMS_P1;PMS_P2;Temp;Humidity;BMP_temperature;BMP_pressure;BME280_temperature;BME280_humidity;BME280_pressure;Samples;Min_cycle;Max_cycle;Signal;HPM_P1;HPM_P2
2021/01/16 00:01:05;;;;;;;59.22;29.85;;;;;;;3.75;68.93;100519.25;4991210;28;20058;-85
2021/01/16 00:03:32;;;;;;;63.05;28.73;;;;;;;3.57;69.83;100510.91;4990399;28;20054;-85
2021/01/16 00:06:00;;;;;;;66.75;30.80;;;;;;;3.33;70.71;100492.88;4960102;28;20157;-86
2021/01/16 00:08:28;;;;;;;70.95;31.17;;;;;;;2.95;72.38;100494.13;4992503;28;20039;-86
2021/01/16 00:10:57;;;;;;;69.60;31.80;;;;;;;3.15;72.12;100484.50;4999984;28;20475;-86
2021/01/16 00:13:28;;;;;;;66.72;29.90;;;;;;;3.06;71.99;100483.38;5004473;28;20058;-86
2021/01/16 00:15:56;;;;;;;65.20;30.42;;;;;;;3.07;71.81;100479.94;4990544;28;20125;-87
2021/01/16 00:18:24;;;;;;;76.88;32.53;;;;;;;3.21;71.56;100485.59;5005048;28;20046;-87
2021/01/16 00:20:56;;;;;;;76.22;31.90;;;;;;;3.33;71.53;100482.56;4998017;28;20392;-86
2021/01/16 00:23:28;;;;;;;76.32;32.65;;;;;;;3.48;70.73;100480.50;5001475;28;20524;-85
2021/01/16 00:25:55;;;;;;;71.63;33.30;;;;;;;3.58;70.66;100467.06;4997918;28;20074;-86
2021/01/16 00:28:25;;;;;;;68.00;30.90;;;;;;;3.58;70.55;100458.41;4974262;28;20536;-86
2021/01/16 00:30:52;;;;;;;63.83;29.55;;;;;;;3.33;71.28;100457.59;4986094;28;20455;-86
2021/01/16 00:33:24;;;;;;;60.13;30.02;;;;;;;3.63;69.84;100456.88;4998233;28;20072;-86
2021/01/16 00:35:53;;;;;;;63.25;28.67;;;;;;;3.60;70.07;100449.03;4982089;28;20073;-86
2021/01/16 00:38:21;;;;;;;49.92;25.77;;;;;;;3.42;69.89;100437.25;4979859;28;20050;-86
2021/01/16 00:40:48;;;;;;;52.95;26.45;;;;;;;3.93;68.23;100426.84;4964773;28;20050;-86
2021/01/16 00:43:16;;;;;;;57.40;26.30;;;;;;;3.79;68.78;100416.03;4981989;28;20050;-86
2021/01/16 00:45:45;;;;;;;47.22;24.90;;;;;;;3.73;69.16;100408.13;4992436;28;20050;-86
2021/01/16 00:48:13;;;;;;;55.70;26.45;;;;;;;4.06;68.32;100397.03;5006327;28;20437;-86
2021/01/16 00:50:40;;;;;;;50.13;24.75;;;;;;;3.62;69.56;100378.47;4983453;28;20050;-87
2021/01/16 00:53:08;;;;;;;47.45;25.20;;;;;;;3.81;69.16;100385.09;4990763;28;20431;-87
2021/01/16 00:55:35;;;;;;;50.65;24.70;;;;;;;3.69;70.07;100370.09;5001381;28;20027;-86
2021/01/16 00:58:13;;;;;;;46.38;23.40;;;;;;;3.59;70.84;100364.59;5006208;28;20050;-87
2021/01/16 01:00:43;;;;;;;45.30;22.90;;;;;;;3.75;70.52;100364.22;4987245;28;20097;-87
2021/01/16 01:03:17;;;;;;;47.67;26.33;;;;;;;3.82;70.34;100359.31;5004658;28;20056;-88
2021/01/16 01:05:44;;;;;;;49.83;25.70;;;;;;;4.19;68.63;100357.78;4993206;28;20469;-87
2021/01/16 01:08:11;;;;;;;43.28;21.58;;;;;;;3.89;69.18;100348.28;4983432;28;20046;-85
2021/01/16 01:10:46;;;;;;;53.70;25.13;;;;;;;3.77;69.83;100344.47;4969138;28;20403;-87
2021/01/16 01:13:14;;;;;;;51.15;24.23;;;;;;;3.85;70.45;100336.13;4984759;28;20054;-86
2021/01/16 01:15:41;;;;;;;46.92;24.10;;;;;;;3.85;70.00;100324.91;4981520;28;20507;-85
2021/01/16 01:18:08;;;;;;;41.63;23.80;;;;;;;4.27;69.10;100320.94;4976722;28;20050;-86
2021/01/16 01:20:34;;;;;;;47.42;23.40;;;;;;;4.28;68.92;100324.41;4979075;28;20098;-86
2021/01/16 01:23:02;;;;;;;52.85;26.08;;;;;;;4.03;69.83;100309.91;4984978;28;20124;-87
2021/01/16 01:25:30;;;;;;;57.80;25.85;;;;;;;4.51;68.18;100310.38;4980002;28;20522;-88
2021/01/16 01:27:58;;;;;;;49.30;24.60;;;;;;;4.32;68.70;100302.97;4981980;28;20050;-86
2021/01/16 01:30:27;;;;;;;47.05;24.67;;;;;;;4.62;67.86;100301.19;4983659;28;20042;-87
2021/01/16 01:32:55;;;;;;;49.10;24.77;;;;;;;4.51;68.26;100302.63;5005262;28;20425;-87
2021/01/16 01:35:22;;;;;;;49.47;23.92;;;;;;;4.46;69.02;100300.78;5003626;28;20041;-87
2021/01/16 01:37:52;;;;;;;44.20;22.80;;;;;;;4.09;70.05;100283.38;4980725;28;20446;-87
2021/01/16 01:40:21;;;;;;;48.92;23.30;;;;;;;4.27;69.72;100271.81;4980073;28;20050;-88
2021/01/16 01:42:50;;;;;;;48.58;24.45;;;;;;;4.27;69.67;100274.41;4976444;28;20416;-88
2021/01/16 01:45:17;;;;;;;43.60;23.70;;;;;;;4.70;68.10;100266.03;4984021;28;20437;-89
2021/01/16 01:47:45;;;;;;;44.05;23.13;;;;;;;4.62;68.32;100266.69;5007893;28;20049;-88
2021/01/16 01:50:13;;;;;;;39.40;21.88;;;;;;;4.44;69.02;100264.50;4989568;28;20046;-88
2021/01/16 01:52:43;;;;;;;41.22;23.20;;;;;;;4.39;69.08;100254.03;5007519;28;20045;-89
2021/01/16 01:55:13;;;;;;;41.78;21.40;;;;;;;4.28;69.63;100250.28;5002112;28;20512;-89
2021/01/16 01:57:44;;;;;;;43.90;23.35;;;;;;;4.73;68.19;100236.78;5001879;28;20057;-87
2021/01/16 02:00:14;;;;;;;48.55;23.15;;;;;;;4.42;69.01;100231.66;4970009;28;20058;-85
2021/01/16 02:02:44;;;;;;;42.28;23.98;;;;;;;4.81;68.42;100230.06;4974587;28;20045;-86
2021/01/16 02:05:12;;;;;;;36.88;20.90;;;;;;;4.11;70.54;100220.53;4977424;28;20037;-84
2021/01/16 02:07:44;;;;;;;48.03;22.88;;;;;;;4.81;68.68;100214.53;4970697;28;20187;-86
2021/01/16 02:10:20;;;;;;;43.08;23.65;;;;;;;4.76;68.15;100222.19;5003572;28;20145;-87
2021/01/16 02:12:47;;;;;;;41.55;22.10;;;;;;;4.78;68.40;100217.06;5004214;28;20357;-88
2021/01/16 02:15:24;;;;;;;39.22;21.60;;;;;;;4.50;69.37;100212.94;4988056;28;20050;-88
2021/01/16 02:17:59;;;;;;;40.67;21.92;;;;;;;4.58;69.21;100203.66;4984104;28;20157;-89
2021/01/16 02:20:34;;;;;;;42.58;20.73;;;;;;;4.19;70.07;100189.69;4980859;28;20053;-90
2021/01/16 02:23:23;;;;;;;37.60;19.83;;;;;;;4.79;69.22;100185.19;5005043;28;20053;-87
2021/01/16 02:26:06;;;;;;;43.40;20.48;;;;;;;4.42;70.00;100167.88;4983224;28;20142;-85
2021/01/16 02:28:36;;;;;;;44.63;21.10;;;;;;;4.60;68.74;100160.59;4979340;28;20129;-85
2021/01/16 02:31:05;;;;;;;43.40;21.02;;;;;;;4.50;69.73;100148.25;4972980;28;20041;-87
2021/01/16 02:33:32;;;;;;;40.75;21.58;;;;;;;4.58;70.24;100138.09;5003730;28;20050;-87
2021/01/16 02:36:21;;;;;;;35.72;19.58;;;;;;;4.43;70.01;100135.13;5001642;28;20061;-86
2021/01/16 02:39:10;;;;;;;37.72;19.38;;;;;;;4.25;71.01;100130.38;4966585;28;20583;-86
2021/01/16 02:41:47;;;;;;;35.20;19.35;;;;;;;4.28;71.15;100104.59;4975398;28;20127;-86
2021/01/16 02:44:32;;;;;;;43.42;22.52;;;;;;;4.48;70.84;100115.41;4989038;28;20189;-86
2021/01/16 02:47:04;;;;;;;42.85;23.50;;;;;;;4.17;71.47;100106.06;4999140;28;20164;-86
2021/01/16 02:49:47;;;;;;;41.25;22.40;;;;;;;4.61;70.54;100099.31;4990356;28;20045;-86
2021/01/16 02:52:18;;;;;;;41.78;22.67;;;;;;;4.16;71.99;100078.44;4983259;28;20092;-87
2021/01/16 02:54:46;;;;;;;39.87;21.53;;;;;;;4.26;71.30;100088.19;4961966;28;20049;-85
2021/01/16 02:57:14;;;;;;;42.00;23.63;;;;;;;4.49;71.40;100084.41;5002064;28;20038;-86
2021/01/16 02:59:45;;;;;;;40.10;21.02;;;;;;;4.48;71.17;100090.41;4999433;28;20054;-83
2021/01/16 03:02:16;;;;;;;45.65;23.50;;;;;;;4.82;69.79;100076.53;5004672;28;20049;-81
2021/01/16 03:04:44;;;;;;;37.20;20.70;;;;;;;4.73;70.21;100076.31;4990107;28;20046;-82
2021/01/16 03:07:18;;;;;;;36.20;21.00;;;;;;;4.57;70.88;100067.34;4984040;28;20046;-83
2021/01/16 03:09:47;;;;;;;50.47;23.55;;;;;;;4.55;71.28;100056.09;4985344;28;20049;-82
2021/01/16 03:12:14;;;;;;;43.33;19.83;;;;;;;4.33;72.31;100046.09;5002153;28;20046;-83
2021/01/16 03:14:45;;;;;;;35.15;19.20;;;;;;;4.45;71.99;100032.56;4998068;28;20124;-83
2021/01/16 03:17:16;;;;;;;40.08;21.00;;;;;;;4.61;71.35;100038.09;4984627;28;20547;-83
2021/01/16 03:19:47;;;;;;;36.85;19.70;;;;;;;4.69;71.39;100038.28;5002865;28;20054;-85
2021/01/16 03:22:28;;;;;;;34.92;20.38;;;;;;;4.55;71.54;100022.47;5004072;28;20122;-86
2021/01/16 03:24:57;;;;;;;37.78;19.35;;;;;;;4.20;73.18;100011.31;5003540;28;20042;-83
2021/01/16 03:27:25;;;;;;;37.85;22.88;;;;;;;4.28;72.77;100017.53;5011435;28;20429;-84
2021/01/16 03:29:52;;;;;;;46.13;22.27;;;;;;;4.59;72.35;99997.53;4974734;28;20121;-84
2021/01/16 03:32:20;;;;;;;39.65;20.25;;;;;;;4.32;73.23;99995.19;4981637;28;20471;-82
2021/01/16 03:34:48;;;;;;;37.15;21.60;;;;;;;4.22;73.15;99993.28;4963047;28;20074;-83
2021/01/16 03:37:15;;;;;;;45.05;23.67;;;;;;;4.93;71.48;99980.97;4993110;28;20153;-83
2021/01/16 03:39:42;;;;;;;43.88;23.85;;;;;;;4.42;73.19;99981.63;4989920;28;20115;-83
2021/01/16 03:42:09;;;;;;;42.78;23.85;;;;;;;4.47;73.11;99984.31;5023136;28;20497;-84
2021/01/16 03:44:36;;;;;;;35.95;22.67;;;;;;;4.65;72.32;99971.78;5014560;28;20053;-84
2021/01/16 03:47:03;;;;;;;39.50;21.67;;;;;;;4.59;72.58;99959.59;5001291;28;20046;-86
2021/01/16 03:49:31;;;;;;;38.15;21.20;;;;;;;4.45;72.45;99948.09;4984805;28;20046;-85
2021/01/16 03:51:58;;;;;;;40.97;21.30;;;;;;;4.18;73.71;99939.72;5005595;28;20050;-86
2021/01/16 03:54:24;;;;;;;36.17;20.15;;;;;;;4.14;74.44;99922.41;5001034;28;20045;-86
2021/01/16 03:56:51;;;;;;;36.20;21.75;;;;;;;4.65;72.43;99923.47;4985524;28;20062;-87
2021/01/16 03:59:17;;;;;;;46.75;23.55;;;;;;;4.92;71.88;99919.69;5005797;28;20069;-87
2021/01/16 04:01:45;;;;;;;41.85;21.70;;;;;;;4.66;73.18;99906.22;4982810;28;20081;-85
2021/01/16 04:04:12;;;;;;;36.78;22.70;;;;;;;4.67;72.37;99903.69;4991323;28;20046;-87
2021/01/16 04:06:39;;;;;;;42.22;22.45;;;;;;;4.59;73.01;99887.16;5001035;28;20050;-87
2021/01/16 04:09:05;;;;;;;39.28;23.73;;;;;;;4.69;72.99;99889.06;4992695;28;20470;-85
2021/01/16 04:11:32;;;;;;;36.83;18.90;;;;;;;4.42;73.46;99882.47;4999902;28;20060;-87
2021/01/16 04:13:59;;;;;;;35.00;19.85;;;;;;;4.42;74.19;99883.34;5002780;28;20452;-86
2021/01/16 04:16:26;;;;;;;33.92;21.58;;;;;;;4.44;74.05;99871.31;4991520;28;20128;-87
2021/01/16 04:18:54;;;;;;;36.47;21.40;;;;;;;4.58;73.62;99864.69;4996100;28;20064;-86
2021/01/16 04:21:21;;;;;;;36.67;20.50;;;;;;;4.81;73.22;99863.41;5004575;28;20046;-87
2021/01/16 04:23:49;;;;;;;34.20;20.15;;;;;;;4.49;73.67;99855.88;5006712;28;20140;-84
2021/01/16 04:26:16;;;;;;;30.30;18.83;;;;;;;4.25;74.96;99846.81;4977908;28;20052;-87
2021/01/16 04:28:42;;;;;;;31.17;19.70;;;;;;;4.36;74.20;99837.53;5006304;28;20073;-87
2021/01/16 04:31:09;;;;;;;27.65;18.42;;;;;;;4.50;74.13;99824.00;5007254;28;20061;-85
2021/01/16 04:33:36;;;;;;;25.17;15.85;;;;;;;4.32;75.06;99811.59;4989508;28;20062;-85
2021/01/16 04:36:03;;;;;;;25.98;15.02;;;;;;;4.28;75.22;99810.66;5028939;28;20150;-86
2021/01/16 04:38:30;;;;;;;24.83;15.50;;;;;;;4.31;75.65;99812.44;4994074;28;20105;-85
2021/01/16 04:40:57;;;;;;;26.48;15.45;;;;;;;4.66;74.27;99806.19;4989815;28;20073;-83
2021/01/16 04:43:24;;;;;;;26.63;14.18;;;;;;;4.35;75.36;99802.19;5001699;28;20057;-84
2021/01/16 04:45:53;;;;;;;20.58;13.93;;;;;;;4.34;75.40;99797.84;4968475;28;20128;-85
2021/01/16 04:48:22;;;;;;;19.98;12.88;;;;;;;4.50;74.68;99790.38;4989056;28;20046;-86
2021/01/16 04:50:50;;;;;;;18.05;12.55;;;;;;;4.58;74.51;99779.31;4994124;28;20054;-84
2021/01/16 04:53:18;;;;;;;18.08;12.73;;;;;;;4.40;74.71;99776.41;4984766;28;20109;-86
2021/01/16 04:55:48;;;;;;;18.48;10.98;;;;;;;4.38;74.63;99768.63;5004111;28;20050;-85
2021/01/16 04:58:14;;;;;;;17.00;11.73;;;;;;;4.49;74.80;99767.94;4992780;28;20053;-86
2021/01/16 05:00:42;;;;;;;22.30;13.45;;;;;;;4.87;73.92;99759.13;5000216;28;20050;-82
2021/01/16 05:03:13;;;;;;;23.95;13.35;;;;;;;4.58;74.64;99747.41;4995398;28;20062;-84
2021/01/16 05:05:41;;;;;;;20.75;11.48;;;;;;;4.45;75.22;99735.97;4984749;28;20065;-86
2021/01/16 05:08:09;;;;;;;21.83;13.55;;;;;;;4.70;74.14;99735.53;4989744;28;20077;-85
2021/01/16 05:10:42;;;;;;;24.05;13.10;;;;;;;4.73;74.54;99735.59;5003063;28;20054;-84
2021/01/16 05:13:17;;;;;;;19.50;12.43;;;;;;;4.61;74.41;99721.56;5005891;28;20050;-83
2021/01/16 05:15:45;;;;;;;15.55;11.30;;;;;;;4.29;75.48;99701.22;4991479;28;20054;-85
2021/01/16 05:18:14;;;;;;;16.77;11.45;;;;;;;4.23;75.83;99703.69;4992896;28;20073;-85
2021/01/16 05:20:43;;;;;;;15.65;11.15;;;;;;;4.66;74.55;99687.16;5004922;28;20046;-82
2021/01/16 05:23:17;;;;;;;14.05;10.65;;;;;;;4.45;75.34;99689.44;5004570;28;20064;-85
2021/01/16 05:25:51;;;;;;;18.98;10.88;;;;;;;4.67;74.68;99673.41;5006278;28;20070;-85
2021/01/16 05:28:20;;;;;;;17.50;11.00;;;;;;;4.48;75.35;99675.66;5005056;28;20493;-84
2021/01/16 05:30:55;;;;;;;19.67;11.23;;;;;;;4.89;74.37;99673.72;5002208;28;20061;-83
2021/01/16 05:33:30;;;;;;;15.80;9.20;;;;;;;4.68;75.07;99671.69;4990345;28;20113;-83
2021/01/16 05:35:59;;;;;;;14.13;8.32;;;;;;;4.63;75.68;99652.63;5007273;28;20061;-82
2021/01/16 05:38:42;;;;;;;13.25;9.48;;;;;;;4.48;75.53;99647.19;5007235;28;20052;-83
2021/01/16 05:41:12;;;;;;;15.05;8.00;;;;;;;4.42;76.04;99641.94;4986200;28;20054;-82
2021/01/16 05:43:42;;;;;;;12.35;7.40;;;;;;;4.34;76.20;99632.34;4989366;28;20160;-82
2021/01/16 05:46:17;;;;;;;8.55;6.20;;;;;;;4.62;75.69;99620.69;5006869;28;20050;-82
2021/01/16 05:48:44;;;;;;;7.28;5.40;;;;;;;4.15;76.38;99622.53;4974708;28;20070;-82
2021/01/16 05:51:11;;;;;;;9.68;5.88;;;;;;;4.97;74.24;99616.03;4983018;28;20038;-80
2021/01/16 05:53:39;;;;;;;8.00;5.68;;;;;;;4.76;74.62;99614.00;5001640;28;20054;-81
2021/01/16 05:56:08;;;;;;;6.55;5.20;;;;;;;4.66;75.12;99608.66;5006086;28;20057;-80
2021/01/16 05:58:35;;;;;;;6.38;4.85;;;;;;;4.42;75.97;99595.38;4998220;28;20065;-81
2021/01/16 06:01:06;;;;;;;5.32;4.05;;;;;;;4.33;76.15;99594.38;5004351;28;20105;-82
2021/01/16 06:03:38;;;;;;;5.73;4.07;;;;;;;4.29;76.17;99587.44;5006904;28;20045;-82
2021/01/16 06:06:11;;;;;;;5.93;4.10;;;;;;;4.46;75.44;99584.25;5005938;28;20100;-83
2021/01/16 06:08:51;;;;;;;5.60;3.38;;;;;;;4.51;75.42;99578.28;5002728;28;20049;-82
2021/01/16 06:11:22;;;;;;;5.18;3.55;;;;;;;4.33;75.49;99576.28;5000124;28;20095;-83
2021/01/16 06:13:50;;;;;;;5.13;2.90;;;;;;;4.53;75.58;99573.13;4985590;28;20473;-83
2021/01/16 06:16:19;;;;;;;4.10;3.25;;;;;;;4.32;75.90;99559.03;5002445;28;20134;-81
2021/01/16 06:18:51;;;;;;;4.13;2.95;;;;;;;4.30;75.79;99565.91;4999991;28;20076;-81
2021/01/16 06:21:30;;;;;;;4.30;3.20;;;;;;;4.55;74.84;99577.50;5005396;28;20042;-83
2021/01/16 06:23:59;;;;;;;7.78;3.72;;;;;;;4.29;75.42;99555.53;5001846;28;20091;-83
2021/01/16 06:26:28;;;;;;;4.95;2.65;;;;;;;4.61;75.29;99543.94;4986014;28;20068;-83
2021/01/16 06:28:54;;;;;;;7.03;4.63;;;;;;;4.37;75.33;99523.75;4998126;28;20428;-84
2021/01/16 06:31:26;;;;;;;4.75;3.40;;;;;;;4.49;75.04;99525.66;5009648;28;20502;-84
2021/01/16 06:33:59;;;;;;;4.90;3.40;;;;;;;4.35;75.46;99533.22;4968035;28;20172;-85
2021/01/16 06:36:31;;;;;;;6.47;2.75;;;;;;;4.27;75.75;99521.88;4999612;28;20160;-85
2021/01/16 06:38:59;;;;;;;3.17;2.83;;;;;;;4.32;74.78;99534.88;4984304;28;20054;-86
2021/01/16 06:41:33;;;;;;;4.65;3.28;;;;;;;4.45;74.83;99516.13;4982516;28;20056;-84
2021/01/16 06:44:01;;;;;;;3.88;2.92;;;;;;;4.50;74.84;99519.66;4988779;28;20062;-86
2021/01/16 06:46:48;;;;;;;4.60;3.17;;;;;;;4.27;75.42;99521.00;4967463;28;20046;-85
2021/01/16 06:49:22;;;;;;;4.57;3.00;;;;;;;4.27;75.30;99511.53;4987056;28;20050;-85
2021/01/16 06:51:55;;;;;;;3.92;2.75;;;;;;;4.22;75.52;99513.19;4987526;28;20064;-87
2021/01/16 06:54:29;;;;;;;4.70;3.42;;;;;;;4.43;75.64;99507.47;4982575;28;20129;-87
2021/01/16 06:57:06;;;;;;;3.45;2.47;;;;;;;4.37;75.75;99490.13;4985128;28;20050;-87
2021/01/16 06:59:35;;;;;;;7.78;2.78;;;;;;;4.39;75.27;99492.75;5003810;28;20056;-86
2021/01/16 07:02:22;;;;;;;4.38;2.78;;;;;;;4.69;74.94;99487.13;5004532;28;20511;-85
2021/01/16 07:04:53;;;;;;;3.20;2.65;;;;;;;4.20;76.38;99488.16;5017034;28;20528;-87
2021/01/16 07:07:28;;;;;;;3.00;2.30;;;;;;;4.35;75.89;99502.19;4961978;28;20056;-86
2021/01/16 07:09:58;;;;;;;2.70;2.33;;;;;;;4.50;75.30;99478.25;4984394;28;20469;-84
2021/01/16 07:12:25;;;;;;;3.60;2.38;;;;;;;4.29;76.01;99478.84;4988549;28;20133;-85
2021/01/16 07:14:51;;;;;;;4.80;2.40;;;;;;;4.79;74.74;99474.31;4984698;28;20421;-85
2021/01/16 07:17:21;;;;;;;3.08;2.30;;;;;;;4.32;75.62;99467.66;4987634;28;20044;-84
2021/01/16 07:19:48;;;;;;;2.85;2.33;;;;;;;4.60;74.39;99463.72;5001641;28;20068;-87
2021/01/16 07:22:15;;;;;;;2.47;2.10;;;;;;;4.48;75.11;99456.66;4987957;28;20076;-84
2021/01/16 07:24:43;;;;;;;2.70;2.10;;;;;;;4.39;75.80;99460.00;5003751;28;20061;-86
2021/01/16 07:27:13;;;;;;;1.75;1.60;;;;;;;4.33;75.52;99470.25;5005121;28;20046;-85
2021/01/16 07:29:41;;;;;;;2.13;1.65;;;;;;;4.58;75.33;99468.00;5004182;28;20049;-86
2021/01/16 07:32:14;;;;;;;3.95;2.40;;;;;;;4.74;74.72;99457.00;4974069;28;20093;-86
2021/01/16 07:34:49;;;;;;;1.70;1.60;;;;;;;4.57;74.83;99467.13;4988402;28;20109;-85
2021/01/16 07:37:19;;;;;;;2.72;1.98;;;;;;;4.31;75.19;99464.22;5001716;28;20050;-83
2021/01/16 07:39:46;;;;;;;2.17;1.98;;;;;;;4.64;74.58;99444.81;4993525;28;20053;-86
2021/01/16 07:42:15;;;;;;;1.98;1.60;;;;;;;4.68;74.23;99444.00;4992460;28;20047;-85
2021/01/16 07:44:44;;;;;;;2.20;1.63;;;;;;;4.84;73.95;99444.16;4983007;28;20057;-85
2021/01/16 07:47:21;;;;;;;2.00;1.52;;;;;;;4.74;73.91;99455.28;5024046;28;20152;-84
2021/01/16 07:49:54;;;;;;;1.70;1.40;;;;;;;5.05;73.67;99453.91;4997182;28;20052;-85
2021/01/16 07:52:23;;;;;;;1.60;1.50;;;;;;;4.39;75.77;99447.06;5003071;28;20042;-85
2021/01/16 07:55:07;;;;;;;1.83;1.33;;;;;;;4.72;75.16;99450.94;4982932;28;20041;-84
2021/01/16 07:57:34;;;;;;;2.92;1.85;;;;;;;4.77;73.99;99450.13;4977539;28;20132;-85
2021/01/16 08:00:08;;;;;;;2.58;2.15;;;;;;;4.87;73.98;99461.47;5002460;28;20068;-85
2021/01/16 08:02:57;;;;;;;2.10;1.73;;;;;;;4.71;74.62;99455.22;5005026;28;20050;-86
2021/01/16 08:05:26;;;;;;;1.75;1.50;;;;;;;4.85;74.47;99447.63;4997140;28;20092;-85
2021/01/16 08:08:14;;;;;;;1.75;1.30;;;;;;;4.54;75.80;99458.47;5017598;28;20129;-85
2021/01/16 08:10:42;;;;;;;3.00;1.77;;;;;;;4.99;74.04;99453.81;5007597;28;20133;-84
2021/01/16 08:13:11;;;;;;;2.08;1.67;;;;;;;5.09;73.68;99439.25;5009461;28;20107;-84
2021/01/16 08:15:41;;;;;;;1.60;1.30;;;;;;;4.77;74.93;99467.38;4995908;28;20116;-84
2021/01/16 08:18:19;;;;;;;1.92;1.40;;;;;;;4.73;75.56;99458.72;4992327;28;20405;-85
2021/01/16 08:20:49;;;;;;;1.63;1.50;;;;;;;5.01;74.27;99464.19;5003795;28;20049;-83
2021/01/16 08:23:25;;;;;;;1.52;1.25;;;;;;;4.80;74.90;99467.41;5005277;28;20156;-84
2021/01/16 08:25:53;;;;;;;1.75;1.30;;;;;;;4.65;76.00;99464.66;5000861;28;20077;-85
2021/01/16 08:28:24;;;;;;;1.38;1.27;;;;;;;4.68;75.62;99467.28;5002728;28;20046;-85
2021/01/16 08:30:51;;;;;;;1.52;1.33;;;;;;;4.68;75.04;99473.31;5005275;28;21680;-85
2021/01/16 08:33:31;;;;;;;1.42;1.33;;;;;;;4.55;75.93;99466.25;4998691;28;20457;-85
2021/01/16 08:35:57;;;;;;;1.17;1.08;;;;;;;4.86;75.41;99458.84;5002646;28;20050;-84
2021/01/16 08:38:24;;;;;;;1.33;1.10;;;;;;;5.09;74.30;99454.78;5007700;28;20062;-85
2021/01/16 08:41:03;;;;;;;1.42;1.00;;;;;;;5.17;73.74;99467.00;4983354;28;20066;-83
2021/01/16 08:43:54;;;;;;;1.75;0.80;;;;;;;5.07;74.54;99457.38;4990454;28;20050;-83
2021/01/16 08:46:35;;;;;;;1.10;0.93;;;;;;;5.14;73.81;99464.34;4998823;28;20035;-84
2021/01/16 08:49:18;;;;;;;1.00;0.90;;;;;;;5.05;73.48;99463.38;4982320;28;20493;-83
2021/01/16 08:51:51;;;;;;;1.05;0.95;;;;;;;5.39;72.26;99459.41;4978120;28;20064;-82
2021/01/16 08:54:23;;;;;;;1.42;1.02;;;;;;;5.46;72.58;99461.22;5018478;28;20129;-82
2021/01/16 08:57:14;;;;;;;1.40;1.10;;;;;;;5.51;72.38;99462.13;5002556;28;20042;-82
2021/01/16 08:59:41;;;;;;;11.60;1.45;;;;;;;5.36;72.77;99447.31;4994375;28;20496;-81
2021/01/16 09:02:09;;;;;;;1.15;0.93;;;;;;;5.37;72.84;99466.31;5006374;28;20379;-81
2021/01/16 09:04:39;;;;;;;14.43;1.40;;;;;;;5.55;71.90;99459.59;5005112;28;20092;-81
2021/01/16 09:07:24;;;;;;;1.73;1.17;;;;;;;5.34;73.11;99455.91;4991855;28;20207;-81
2021/01/16 09:09:54;;;;;;;2.05;1.38;;;;;;;5.43;72.97;99458.59;5031411;28;20104;-82
2021/01/16 09:12:38;;;;;;;3.72;1.23;;;;;;;5.43;72.67;99461.16;4983438;28;20153;-82
2021/01/16 09:15:42;;;;;;;1.40;1.30;;;;;;;5.45;73.34;99477.63;4976898;28;20211;-82
2021/01/16 09:18:25;;;;;;;1.27;1.02;;;;;;;5.65;72.26;99465.72;5016013;28;20145;-82
2021/01/16 09:20:52;;;;;;;2.47;1.40;;;;;;;5.33;73.62;99474.88;4994190;28;20059;-82
2021/01/16 09:23:18;;;;;;;6.50;1.40;;;;;;;5.89;72.16;99478.03;5011203;28;20058;-82
2021/01/16 09:25:46;;;;;;;33.42;1.67;;;;;;;5.91;72.23;99472.00;4972443;28;20413;-82
2021/01/16 09:28:12;;;;;;;1.00;0.90;;;;;;;5.82;72.58;99473.59;5004005;28;20350;-82
2021/01/16 09:30:39;;;;;;;1.40;0.90;;;;;;;5.71;72.68;99479.56;4968125;28;20097;-82
2021/01/16 09:33:23;;;;;;;0.90;0.70;;;;;;;5.87;72.24;99479.72;4992653;28;20046;-83
2021/01/16 09:35:51;;;;;;;5.43;0.90;;;;;;;5.76;72.85;99478.72;5022946;28;20586;-82
2021/01/16 09:38:22;;;;;;;1.10;1.00;;;;;;;5.89;72.66;99475.44;5022919;28;20121;-82
2021/01/16 09:40:50;;;;;;;0.73;0.73;;;;;;;6.27;71.55;99475.72;5020166;28;20171;-82
2021/01/16 09:43:19;;;;;;;0.90;0.82;;;;;;;6.18;72.05;99491.22;5017525;28;20156;-82
2021/01/16 09:45:55;;;;;;;0.60;0.60;;;;;;;7.02;70.74;99495.97;5040944;28;20417;-82
2021/01/16 09:48:30;;;;;;;1.58;0.85;;;;;;;6.68;70.83;99484.56;5007652;28;20044;-82
2021/01/16 09:50:58;;;;;;;3.50;0.70;;;;;;;7.38;69.31;99492.63;5041082;28;20136;-82
2021/01/16 09:53:26;;;;;;;1.70;1.48;;;;;;;7.79;67.67;99495.25;5055249;28;20155;-82
2021/01/16 09:55:54;;;;;;;0.60;0.60;;;;;;;9.29;63.69;99496.66;5040749;28;20479;-82
2021/01/16 09:58:32;;;;;;;0.93;0.82;;;;;;;9.97;60.75;99507.50;5040822;28;20051;-83
2021/01/16 10:01:27;;;;;;;1.17;1.02;;;;;;;9.16;61.46;99501.06;5026242;28;20099;-83
2021/01/16 10:04:02;;;;;;;1.50;1.08;;;;;;;8.51;64.39;99515.19;5042155;28;20137;-82
2021/01/16 10:06:36;;;;;;;4.03;1.63;;;;;;;7.85;66.75;99516.94;5043853;28;20553;-82
2021/01/16 10:09:23;;;;;;;2.17;1.85;;;;;;;7.48;68.76;99511.69;5007710;28;20052;-86
2021/01/16 10:11:50;;;;;;;2.45;1.60;;;;;;;7.61;68.74;99497.84;5062804;28;20500;-83
2021/01/16 10:14:20;;;;;;;2.97;1.83;;;;;;;7.39;69.26;99497.81;4997226;28;20104;-80
2021/01/16 10:16:48;;;;;;;4.53;2.25;;;;;;;7.52;68.74;99490.03;5002222;28;20045;-81
2021/01/16 10:19:16;;;;;;;5.45;2.05;;;;;;;6.97;70.75;99495.94;5003710;28;20049;-82
2021/01/16 10:21:51;;;;;;;4.57;2.45;;;;;;;7.50;69.65;99482.22;5004625;28;20057;-82
2021/01/16 10:24:20;;;;;;;4.25;2.40;;;;;;;8.54;66.55;99483.94;5004578;28;20038;-82
2021/01/16 10:26:47;;;;;;;6.13;2.17;;;;;;;8.37;66.58;99483.13;5002688;28;20046;-82
2021/01/16 10:29:28;;;;;;;6.30;2.40;;;;;;;8.05;67.52;99482.25;5000491;28;20058;-82
2021/01/16 10:32:14;;;;;;;4.80;2.08;;;;;;;9.77;63.96;99491.13;4985311;28;20452;-81
2021/01/16 10:34:43;;;;;;;4.95;2.47;;;;;;;9.89;60.90;99493.63;4997056;28;20501;-83
2021/01/16 10:37:11;;;;;;;8.32;2.22;;;;;;;10.18;61.49;99492.56;4990706;28;20149;-81
2021/01/16 10:39:39;;;;;;;5.20;2.00;;;;;;;9.61;63.48;99499.94;4981508;28;20042;-82
2021/01/16 10:42:13;;;;;;;7.00;2.13;;;;;;;9.57;63.11;99498.22;4999816;28;20080;-80
2021/01/16 10:44:40;;;;;;;7.10;2.25;;;;;;;8.95;64.95;99499.44;5002058;28;20064;-80
2021/01/16 10:47:33;;;;;;;5.13;2.13;;;;;;;9.37;65.30;99503.56;4989261;28;20068;-81
2021/01/16 10:50:12;;;;;;;9.82;2.10;;;;;;;10.76;62.25;99500.66;4990283;28;20074;-80
2021/01/16 10:52:39;;;;;;;6.47;1.92;;;;;;;11.21;59.95;99496.66;5023189;28;20512;-82
2021/01/16 10:55:11;;;;;;;4.55;1.50;;;;;;;10.79;59.40;99492.81;5005101;28;20435;-81
2021/01/16 10:57:49;;;;;;;4.97;1.90;;;;;;;10.70;59.54;99495.50;4982261;28;20129;-81
2021/01/16 11:00:18;;;;;;;6.35;2.40;;;;;;;10.06;62.22;99498.72;4998123;28;20137;-81
2021/01/16 11:02:49;;;;;;;7.15;2.15;;;;;;;10.32;62.33;99504.59;4998140;28;20172;-81
2021/01/16 11:05:18;;;;;;;4.25;1.83;;;;;;;10.58;62.25;99506.09;5000802;28;20512;-81
2021/01/16 11:07:49;;;;;;;4.30;2.00;;;;;;;11.40;59.39;99510.34;4996592;28;20050;-81
2021/01/16 11:10:29;;;;;;;2.83;1.40;;;;;;;11.01;59.26;99509.09;4998685;28;20050;-83
2021/01/16 11:13:15;;;;;;;7.68;2.10;;;;;;;10.29;61.60;99503.78;5000013;28;20132;-80
2021/01/16 11:15:44;;;;;;;4.35;1.48;;;;;;;10.37;63.08;99499.34;4965092;28;20061;-82
2021/01/16 11:18:32;;;;;;;5.32;1.50;;;;;;;11.27;61.44;99507.03;4987980;28;20047;-82
2021/01/16 11:21:11;;;;;;;2.63;1.20;;;;;;;11.76;58.40;99499.34;4985048;28;20553;-82
2021/01/16 11:23:57;;;;;;;7.32;2.28;;;;;;;11.11;59.46;99493.28;4992841;28;20382;-84
2021/01/16 11:26:24;;;;;;;4.18;1.20;;;;;;;10.91;60.63;99493.53;4998547;28;20150;-83
2021/01/16 11:28:56;;;;;;;5.50;1.67;;;;;;;10.27;63.09;99495.06;4979659;28;20409;-83
2021/01/16 11:31:30;;;;;;;9.00;1.77;;;;;;;9.92;65.06;99485.81;5002733;28;20054;-83
2021/01/16 11:34:09;;;;;;;9.63;2.50;;;;;;;10.11;64.96;99480.44;4983163;28;20056;-83
2021/01/16 11:36:52;;;;;;;15.68;2.05;;;;;;;10.45;63.50;99487.94;4985411;28;20042;-84
2021/01/16 11:39:50;;;;;;;6.03;1.80;;;;;;;10.81;62.41;99484.06;5005081;28;20096;-82
2021/01/16 11:42:19;;;;;;;12.98;2.25;;;;;;;10.70;63.42;99483.31;4969745;28;20155;-85
2021/01/16 11:44:57;;;;;;;10.07;2.40;;;;;;;10.43;63.46;99488.84;5001673;28;20038;-84
2021/01/16 11:47:26;;;;;;;8.18;1.98;;;;;;;11.10;61.80;99483.72;5017468;28;20096;-84
2021/01/16 11:49:55;;;;;;;10.40;2.30;;;;;;;10.72;62.84;99485.91;5014413;28;20062;-84